createdAt,value
2023-03-02T00:02:17.411Z,11.86
2023-03-02T00:04:55.408Z,11.67
2023-03-02T00:07:23.553Z,11.75
2023-03-02T00:09:51.024Z,11.79
2023-03-02T00:12:18.196Z,11.83
2023-03-02T00:14:45.374Z,11.90
2023-03-02T00:17:12.789Z,11.95
2023-03-02T00:19:40.053Z,12.03
2023-03-02T00:22:08.210Z,12.09
2023-03-02T00:24:36.494Z,11.96
2023-03-02T00:27:03.632Z,11.99
2023-03-02T00:29:30.769Z,11.86
2023-03-02T00:31:58.316Z,11.91
2023-03-02T00:34:25.477Z,11.86
2023-03-02T00:36:52.799Z,11.85
2023-03-02T00:39:20.437Z,11.88
2023-03-02T00:41:48.337Z,11.92
2023-03-02T00:44:17.511Z,11.97
2023-03-02T00:46:45.321Z,11.98
2023-03-02T00:49:12.871Z,11.94
2023-03-02T00:51:39.998Z,11.91
2023-03-02T00:54:07.461Z,11.96
2023-03-02T00:56:35.192Z,11.83
2023-03-02T00:59:08.115Z,11.63
2023-03-02T01:01:35.900Z,11.67
2023-03-02T01:04:03.263Z,11.62
2023-03-02T01:06:30.775Z,11.64
2023-03-02T01:08:58.458Z,11.54
2023-03-02T01:11:25.714Z,11.35
2023-03-02T01:13:52.872Z,11.51
2023-03-02T01:16:20.426Z,11.44
2023-03-02T01:18:47.637Z,11.67
2023-03-02T01:21:16.070Z,11.35
2023-03-02T01:23:43.663Z,11.17
2023-03-02T01:26:10.874Z,11.36
2023-03-02T01:28:38.021Z,11.39
2023-03-02T01:31:05.597Z,11.11
2023-03-02T01:33:32.964Z,11.15
2023-03-02T01:36:00.314Z,11.30
2023-03-02T01:38:28.123Z,11.35
2023-03-02T01:40:55.347Z,11.23
2023-03-02T01:43:22.599Z,10.90
2023-03-02T01:45:51.932Z,11.24
2023-03-02T01:48:21.695Z,11.24
2023-03-02T01:50:49.028Z,11.01
2023-03-02T01:53:16.603Z,11.08
2023-03-02T01:55:44.219Z,10.85
2023-03-02T01:58:12.591Z,10.64
2023-03-02T02:00:40.356Z,10.80
2023-03-02T02:03:11.996Z,11.02
2023-03-02T02:05:40.313Z,11.01
2023-03-02T02:08:08.444Z,10.96
2023-03-02T02:10:35.838Z,10.89
2023-03-02T02:13:03.035Z,10.90
2023-03-02T02:15:30.483Z,10.94
2023-03-02T02:17:57.854Z,10.89
2023-03-02T02:20:25.046Z,10.92
2023-03-02T02:22:52.394Z,10.71
2023-03-02T02:25:42.860Z,10.99
2023-03-02T02:28:11.645Z,10.76
2023-03-02T02:30:38.837Z,10.74
2023-03-02T02:33:06.258Z,10.81
2023-03-02T02:35:38.563Z,10.86
2023-03-02T02:38:06.504Z,10.67
2023-03-02T02:40:37.024Z,10.50
2023-03-02T02:43:04.856Z,10.74
2023-03-02T02:45:32.039Z,10.71
2023-03-02T02:47:59.478Z,10.89
2023-03-02T02:50:33.506Z,10.71
2023-03-02T02:53:03.017Z,10.91
2023-03-02T02:55:30.363Z,10.76
2023-03-02T02:57:57.832Z,10.49
2023-03-02T03:00:25.322Z,10.77
2023-03-02T03:02:58.908Z,10.35
2023-03-02T03:05:26.342Z,10.45
2023-03-02T03:07:53.559Z,10.53
2023-03-02T03:10:20.656Z,10.36
2023-03-02T03:12:48.318Z,10.58
2023-03-02T03:15:15.581Z,10.58
2023-03-02T03:17:47.254Z,10.30
2023-03-02T03:20:16.301Z,10.28
2023-03-02T03:22:43.873Z,10.42
2023-03-02T03:25:15.306Z,10.58
2023-03-02T03:27:43.049Z,10.53
2023-03-02T03:30:12.023Z,10.60
2023-03-02T03:32:40.035Z,10.57
2023-03-02T03:35:11.679Z,10.12
2023-03-02T03:37:40.345Z,10.09
2023-03-02T03:40:09.842Z,10.00
2023-03-02T03:42:38.278Z,10.14
2023-03-02T03:45:06.348Z,10.06
2023-03-02T03:47:34.259Z,10.38
2023-03-02T03:50:01.652Z,10.36
2023-03-02T03:52:32.413Z,10.30
2023-03-02T03:55:01.870Z,10.48
2023-03-02T03:57:29.500Z,10.53
2023-03-02T03:59:56.645Z,10.56
2023-03-02T04:02:24.282Z,10.55
2023-03-02T04:04:51.974Z,10.57
2023-03-02T04:07:19.430Z,10.57
2023-03-02T04:09:46.843Z,10.71
2023-03-02T04:12:14.490Z,10.68
2023-03-02T04:14:42.209Z,10.44
2023-03-02T04:17:09.504Z,10.63
2023-03-02T04:19:37.600Z,10.68
2023-03-02T04:22:05.180Z,10.71
2023-03-02T04:24:33.054Z,10.58
2023-03-02T04:27:01.290Z,10.70
2023-03-02T04:29:28.817Z,10.66
2023-03-02T04:31:56.095Z,10.74
2023-03-02T04:34:27.379Z,10.64
2023-03-02T04:36:55.065Z,10.68
2023-03-02T04:39:22.444Z,10.63
2023-03-02T04:41:50.046Z,10.64
2023-03-02T04:44:17.290Z,10.52
2023-03-02T04:46:45.140Z,10.56
2023-03-02T04:49:13.153Z,10.45
2023-03-02T04:51:42.087Z,10.68
2023-03-02T04:54:20.203Z,10.66
2023-03-02T04:56:49.200Z,10.63
2023-03-02T04:59:16.758Z,10.39
2023-03-02T05:01:44.562Z,10.32
2023-03-02T05:04:12.354Z,10.44
2023-03-02T05:06:39.710Z,10.63
2023-03-02T05:09:06.853Z,10.28
2023-03-02T05:11:34.285Z,10.42
2023-03-02T05:14:02.666Z,10.43
2023-03-02T05:16:31.948Z,10.43
2023-03-02T05:19:00.100Z,10.39
2023-03-02T05:21:27.518Z,10.46
2023-03-02T05:23:54.847Z,10.20
2023-03-02T05:26:22.367Z,9.97
2023-03-02T05:28:50.094Z,9.79
2023-03-02T05:31:18.714Z,9.73
2023-03-02T05:33:46.320Z,9.89
2023-03-02T05:36:13.480Z,9.63
2023-03-02T05:38:40.768Z,10.09
2023-03-02T05:41:08.215Z,9.86
2023-03-02T05:43:36.050Z,9.97
2023-03-02T05:46:03.307Z,9.96
2023-03-02T05:48:30.983Z,10.17
2023-03-02T05:50:58.114Z,10.19
2023-03-02T05:53:25.281Z,10.12
2023-03-02T05:55:53.350Z,10.18
2023-03-02T05:58:20.551Z,10.29
2023-03-02T06:00:48.112Z,10.45
2023-03-02T06:03:15.926Z,10.31
2023-03-02T06:05:44.080Z,10.39
2023-03-02T06:08:11.209Z,10.23
2023-03-02T06:10:38.784Z,10.28
2023-03-02T06:13:05.960Z,10.37
2023-03-02T06:15:33.117Z,10.32
2023-03-02T06:18:00.562Z,10.44
2023-03-02T06:20:27.754Z,10.59
2023-03-02T06:22:55.081Z,10.80
2023-03-02T06:25:23.546Z,10.99
2023-03-02T06:27:54.366Z,10.97
2023-03-02T06:30:22.945Z,10.99
2023-03-02T06:32:50.537Z,11.00
2023-03-02T06:35:18.075Z,10.76
2023-03-02T06:37:45.282Z,11.16
2023-03-02T06:40:13.887Z,10.51
2023-03-02T06:42:41.862Z,10.99
2023-03-02T06:45:09.541Z,11.43
2023-03-02T06:47:37.000Z,10.78
2023-03-02T06:50:04.653Z,10.28
2023-03-02T06:52:31.872Z,10.95
2023-03-02T06:54:59.289Z,11.37
2023-03-02T06:57:33.610Z,11.20
2023-03-02T07:00:04.317Z,10.88
2023-03-02T07:02:31.478Z,10.29
2023-03-02T07:04:58.627Z,9.90
2023-03-02T07:07:26.045Z,9.24
2023-03-02T07:09:53.204Z,9.32
2023-03-02T07:12:20.339Z,10.17
2023-03-02T07:14:47.824Z,10.01
2023-03-02T07:17:14.979Z,9.59
2023-03-02T07:19:42.131Z,10.15
2023-03-02T07:22:09.554Z,9.83
2023-03-02T07:24:36.712Z,9.61
2023-03-02T07:27:04.448Z,9.25
2023-03-02T07:29:31.893Z,9.94
2023-03-02T07:32:01.845Z,9.80
2023-03-02T07:34:29.095Z,10.13
2023-03-02T07:36:56.646Z,10.04
2023-03-02T07:39:23.832Z,9.65
2023-03-02T07:41:51.050Z,10.01
2023-03-02T07:44:20.624Z,9.86
2023-03-02T07:46:47.754Z,9.62
2023-03-02T07:49:14.923Z,9.79
2023-03-02T07:51:42.372Z,8.95
2023-03-02T07:54:09.517Z,9.10
2023-03-02T07:56:36.654Z,9.27
2023-03-02T07:59:05.124Z,9.49
2023-03-02T08:01:32.589Z,9.61
2023-03-02T08:04:00.171Z,10.18
2023-03-02T08:06:27.405Z,10.08
2023-03-02T08:08:54.561Z,9.99
2023-03-02T08:11:22.008Z,9.42
2023-03-02T08:13:49.173Z,9.18
2023-03-02T08:16:16.575Z,10.05
2023-03-02T08:18:44.258Z,10.01
2023-03-02T08:21:12.247Z,9.45
2023-03-02T08:23:39.426Z,8.92
2023-03-02T08:26:06.907Z,10.44
2023-03-02T08:28:34.330Z,10.80
2023-03-02T08:31:02.142Z,9.47
2023-03-02T08:33:30.729Z,9.28
2023-03-02T08:36:02.148Z,9.84
2023-03-02T08:38:30.088Z,10.75
2023-03-02T08:40:57.223Z,11.30
2023-03-02T08:43:24.825Z,10.69
2023-03-02T08:45:52.835Z,11.67
2023-03-02T08:48:20.781Z,11.67
2023-03-02T08:50:54.319Z,11.94
2023-03-02T08:53:21.770Z,11.97
2023-03-02T08:55:48.953Z,11.77
2023-03-02T08:58:16.204Z,11.56
2023-03-02T09:00:43.907Z,12.27
2023-03-02T09:03:11.349Z,12.46
2023-03-02T09:05:38.547Z,11.22
2023-03-02T09:08:06.264Z,12.11
2023-03-02T09:10:33.460Z,11.35
2023-03-02T09:13:00.896Z,11.54
2023-03-02T09:15:28.311Z,10.91
2023-03-02T09:17:55.451Z,11.33
2023-03-02T09:20:22.615Z,11.93
2023-03-02T09:22:50.957Z,11.30
2023-03-02T09:25:18.790Z,11.94
2023-03-02T09:27:46.578Z,12.85
2023-03-02T09:30:14.456Z,13.53
2023-03-02T09:32:42.004Z,12.82
2023-03-02T09:35:09.403Z,13.16
2023-03-02T09:37:38.827Z,12.18
2023-03-02T09:40:12.013Z,11.66
2023-03-02T09:42:44.394Z,11.59
2023-03-02T09:45:18.781Z,12.73
2023-03-02T09:47:51.834Z,13.07
2023-03-02T09:50:19.023Z,12.99
2023-03-02T09:52:52.459Z,12.91
2023-03-02T09:55:20.765Z,12.99
2023-03-02T09:57:48.606Z,12.97
2023-03-02T10:00:19.901Z,13.38
2023-03-02T10:02:51.534Z,13.75
2023-03-02T10:05:20.637Z,13.02
2023-03-02T10:07:48.620Z,12.98
2023-03-02T10:10:21.972Z,12.51
2023-03-02T10:13:00.031Z,12.54
2023-03-02T10:15:31.335Z,13.06
2023-03-02T10:18:18.550Z,12.85
2023-03-02T10:20:56.550Z,12.85
2023-03-02T10:23:38.165Z,13.42
2023-03-02T10:26:05.518Z,13.42
2023-03-02T10:28:34.494Z,14.28
2023-03-02T10:31:14.873Z,13.82
2023-03-02T10:33:42.528Z,13.91
2023-03-02T10:36:22.861Z,13.55
2023-03-02T10:38:50.584Z,13.72
2023-03-02T10:41:20.749Z,13.31
2023-03-02T10:43:49.210Z,13.13
2023-03-02T10:46:16.671Z,14.10
2023-03-02T10:48:50.868Z,14.34
2023-03-02T10:51:26.199Z,14.63
2023-03-02T10:54:03.415Z,14.47
2023-03-02T10:56:31.716Z,14.59
2023-03-02T10:59:03.374Z,15.58
2023-03-02T11:01:31.400Z,14.86
2023-03-02T11:03:59.801Z,15.04
2023-03-02T11:06:27.331Z,15.28
2023-03-02T11:09:00.308Z,15.38
2023-03-02T11:11:27.713Z,15.93
2023-03-02T11:13:56.887Z,16.01
2023-03-02T11:16:25.801Z,15.10
2023-03-02T11:18:54.943Z,15.85
2023-03-02T11:21:25.493Z,15.63
2023-03-02T11:24:14.005Z,14.87
2023-03-02T11:26:44.582Z,15.48
2023-03-02T11:29:15.179Z,16.24
2023-03-02T11:31:50.070Z,16.64
2023-03-02T11:34:44.503Z,16.22
2023-03-02T11:37:11.997Z,15.62
2023-03-02T11:39:54.968Z,15.26
2023-03-02T11:42:27.442Z,15.85
2023-03-02T11:44:54.934Z,15.69
2023-03-02T11:47:22.624Z,15.54
2023-03-02T11:49:53.181Z,15.80
2023-03-02T11:52:21.810Z,16.04
2023-03-02T11:55:07.812Z,15.92
2023-03-02T11:57:37.099Z,16.03
2023-03-02T12:00:05.967Z,16.69
2023-03-02T12:02:39.460Z,16.19
2023-03-02T12:05:08.625Z,15.59
2023-03-02T12:07:36.253Z,15.26
2023-03-02T12:10:07.614Z,14.76
2023-03-02T12:12:36.774Z,15.09
2023-03-02T12:15:04.211Z,16.12
2023-03-02T12:17:32.890Z,15.66
2023-03-02T12:20:18.547Z,16.05
2023-03-02T12:22:45.720Z,16.25
2023-03-02T12:25:19.135Z,16.13
2023-03-02T12:27:50.460Z,16.08
2023-03-02T12:30:26.537Z,16.81
2023-03-02T12:33:05.514Z,16.67
2023-03-02T12:35:33.651Z,17.02
2023-03-02T12:38:01.856Z,16.90
2023-03-02T12:40:35.193Z,17.06
2023-03-02T12:43:11.689Z,17.00
2023-03-02T12:45:42.704Z,15.95
2023-03-02T12:48:24.287Z,16.62
2023-03-02T12:50:51.516Z,17.29
2023-03-02T12:53:19.655Z,16.96
2023-03-02T12:55:46.852Z,17.18
2023-03-02T12:58:21.107Z,17.14
2023-03-02T13:00:52.886Z,17.24
2023-03-02T13:03:20.270Z,17.77
2023-03-02T13:05:47.598Z,17.37
2023-03-02T13:08:15.151Z,17.49
2023-03-02T13:10:42.361Z,17.31
2023-03-02T13:13:17.010Z,16.65
2023-03-02T13:15:51.690Z,17.13
2023-03-02T13:18:19.110Z,16.69
2023-03-02T13:20:46.609Z,16.36
2023-03-02T13:23:14.119Z,16.71
2023-03-02T13:25:48.781Z,16.62
2023-03-02T13:28:34.520Z,15.82
2023-03-02T13:31:03.538Z,16.80
2023-03-02T13:33:32.711Z,17.47
2023-03-02T13:35:59.901Z,17.12
2023-03-02T13:38:29.042Z,17.37
2023-03-02T13:40:56.553Z,17.26
2023-03-02T13:43:23.709Z,16.60
2023-03-02T13:45:51.962Z,16.53
2023-03-02T13:48:19.442Z,17.29
2023-03-02T13:50:55.560Z,16.80
2023-03-02T13:53:24.345Z,17.56
2023-03-02T13:55:52.705Z,16.52
2023-03-02T13:58:19.857Z,16.93
2023-03-02T14:00:47.310Z,17.39
2023-03-02T14:03:28.268Z,17.45
2023-03-02T14:05:55.679Z,16.53
2023-03-02T14:08:23.391Z,16.40
2023-03-02T14:10:51.974Z,16.41
2023-03-02T14:13:21.363Z,16.93
2023-03-02T14:15:50.325Z,16.21
2023-03-02T14:18:29.931Z,16.46
2023-03-02T14:20:57.818Z,17.40
2023-03-02T14:23:25.604Z,17.74
2023-03-02T14:25:53.045Z,16.92
2023-03-02T14:28:25.120Z,15.62
2023-03-02T14:30:53.067Z,15.35
2023-03-02T14:33:20.792Z,16.29
2023-03-02T14:35:48.594Z,16.53
2023-03-02T14:38:15.784Z,16.69
2023-03-02T14:40:43.259Z,17.27
2023-03-02T14:43:10.513Z,16.76
2023-03-02T14:45:37.677Z,16.34
2023-03-02T14:48:05.318Z,16.62
2023-03-02T14:50:33.885Z,17.48
2023-03-02T14:53:01.054Z,17.04
2023-03-02T14:55:29.384Z,17.51
2023-03-02T14:58:26.177Z,17.27
2023-03-02T15:00:53.877Z,16.99
2023-03-02T15:03:25.488Z,17.06
2023-03-02T15:06:00.917Z,15.96
2023-03-02T15:08:29.153Z,16.02
2023-03-02T15:10:57.421Z,15.94
2023-03-02T15:13:24.568Z,16.45
2023-03-02T15:15:53.539Z,16.96
2023-03-02T15:18:20.728Z,17.08
2023-03-02T15:20:48.060Z,17.73
2023-03-02T15:23:15.510Z,17.48
2023-03-02T15:25:43.054Z,17.22
2023-03-02T15:28:10.265Z,16.96
2023-03-02T15:30:37.833Z,17.36
2023-03-02T15:33:05.001Z,16.22
2023-03-02T15:35:32.319Z,17.18
2023-03-02T15:38:02.602Z,17.14
2023-03-02T15:40:29.816Z,17.06
2023-03-02T15:42:57.216Z,17.29
2023-03-02T15:45:24.699Z,17.34
2023-03-02T15:47:51.863Z,17.16
2023-03-02T15:50:19.021Z,17.19
2023-03-02T15:52:46.513Z,17.05
2023-03-02T15:55:16.679Z,17.06
2023-03-02T15:57:43.880Z,17.47
2023-03-02T16:00:13.510Z,17.08
2023-03-02T16:02:41.130Z,17.30
2023-03-02T16:05:08.849Z,17.49
2023-03-02T16:07:37.309Z,17.37
2023-03-02T16:10:05.150Z,16.99
2023-03-02T16:12:32.316Z,16.68
2023-03-02T16:14:59.600Z,16.67
2023-03-02T16:17:27.447Z,16.69
2023-03-02T16:19:54.815Z,16.92
2023-03-02T16:22:22.112Z,16.87
2023-03-02T16:24:49.630Z,17.24
2023-03-02T16:27:16.998Z,17.26
2023-03-02T16:29:44.481Z,17.13
2023-03-02T16:32:12.106Z,17.05
2023-03-02T16:34:39.402Z,16.94
2023-03-02T16:37:06.587Z,17.01
2023-03-02T16:39:34.202Z,16.75
2023-03-02T16:42:01.409Z,16.74
2023-03-02T16:44:28.696Z,16.26
2023-03-02T16:46:57.438Z,16.25
2023-03-02T16:49:24.933Z,16.43
2023-03-02T16:51:55.728Z,16.46
2023-03-02T16:54:23.453Z,16.47
2023-03-02T16:56:50.747Z,16.25
2023-03-02T16:59:18.067Z,16.26
2023-03-02T17:01:45.900Z,16.23
2023-03-02T17:04:13.598Z,16.35
2023-03-02T17:06:59.518Z,15.95
2023-03-02T17:09:28.660Z,15.90
2023-03-02T17:11:56.073Z,15.60
2023-03-02T17:14:24.352Z,15.58
2023-03-02T17:16:52.617Z,15.55
2023-03-02T17:19:20.376Z,15.80
2023-03-02T17:21:48.109Z,15.72
2023-03-02T17:24:17.612Z,15.79
2023-03-02T17:26:47.581Z,15.55
2023-03-02T17:29:15.295Z,15.75
2023-03-02T17:31:43.236Z,15.66
2023-03-02T17:34:10.823Z,15.67
2023-03-02T17:36:38.627Z,15.66
2023-03-02T17:39:06.352Z,15.68
2023-03-02T17:41:35.037Z,15.32
2023-03-02T17:44:03.402Z,15.35
2023-03-02T17:46:32.648Z,15.04
2023-03-02T17:49:01.587Z,15.30
2023-03-02T17:51:29.280Z,15.25
2023-03-02T17:53:58.269Z,14.73
2023-03-02T17:56:28.030Z,14.78
2023-03-02T17:58:58.658Z,14.96
2023-03-02T18:01:28.897Z,14.80
2023-03-02T18:03:57.185Z,14.57
2023-03-02T18:06:25.750Z,14.28
2023-03-02T18:08:53.520Z,14.19
2023-03-02T18:11:23.292Z,14.38
2023-03-02T18:13:51.292Z,14.44
2023-03-02T18:16:18.943Z,14.21
2023-03-02T18:19:04.160Z,14.25
2023-03-02T18:21:34.949Z,14.05
2023-03-02T18:24:03.578Z,14.46
2023-03-02T18:26:32.322Z,14.47
2023-03-02T18:29:03.413Z,14.42
2023-03-02T18:31:37.253Z,14.45
2023-03-02T18:34:10.607Z,14.27
2023-03-02T18:36:39.242Z,14.33
2023-03-02T18:39:08.282Z,14.33
2023-03-02T18:41:37.986Z,14.33
2023-03-02T18:44:06.684Z,14.25
2023-03-02T18:46:34.905Z,14.11
2023-03-02T18:49:04.738Z,14.17
2023-03-02T18:51:33.211Z,14.13
2023-03-02T18:54:04.149Z,14.14
2023-03-02T18:56:39.199Z,14.08
2023-03-02T18:59:09.157Z,13.55
2023-03-02T19:01:37.113Z,13.95
2023-03-02T19:04:09.247Z,14.01
2023-03-02T19:06:37.907Z,14.05
2023-03-02T19:09:05.876Z,14.06
2023-03-02T19:11:34.889Z,14.05
2023-03-02T19:14:03.785Z,14.02
2023-03-02T19:16:33.220Z,14.06
2023-03-02T19:19:02.285Z,14.05
2023-03-02T19:21:30.871Z,14.03
2023-03-02T19:23:59.631Z,14.14
2023-03-02T19:26:28.012Z,13.98
2023-03-02T19:28:55.657Z,13.95
2023-03-02T19:31:24.685Z,13.88
2023-03-02T19:33:52.760Z,13.76
2023-03-02T19:36:22.489Z,13.79
2023-03-02T19:38:51.561Z,13.85
2023-03-02T19:41:20.906Z,13.89
2023-03-02T19:43:49.307Z,13.91
2023-03-02T19:46:20.371Z,13.74
2023-03-02T19:48:48.368Z,13.68
2023-03-02T19:51:17.725Z,13.82
2023-03-02T19:53:47.226Z,13.84
2023-03-02T19:56:15.740Z,13.86
2023-03-02T19:58:49.230Z,13.86
2023-03-02T20:01:22.120Z,13.74
2023-03-02T20:03:55.264Z,13.59
2023-03-02T20:06:25.538Z,13.54
2023-03-02T20:08:55.418Z,13.72
2023-03-02T20:11:29.389Z,13.61
2023-03-02T20:14:02.086Z,13.68
2023-03-02T20:16:31.120Z,13.67
2023-03-02T20:19:09.648Z,13.65
2023-03-02T20:21:39.005Z,13.54
2023-03-02T20:24:09.280Z,13.44
2023-03-02T20:26:39.965Z,13.49
2023-03-02T20:29:12.009Z,13.36
2023-03-02T20:31:40.101Z,13.52
2023-03-02T20:34:11.225Z,13.42
2023-03-02T20:36:39.643Z,13.49
2023-03-02T20:39:23.803Z,13.35
2023-03-02T20:41:53.265Z,13.31
2023-03-02T20:44:21.840Z,13.33
2023-03-02T20:46:55.202Z,13.32
2023-03-02T20:49:24.543Z,13.15
2023-03-02T20:51:57.753Z,13.24
2023-03-02T20:54:31.822Z,13.26
2023-03-02T20:56:59.828Z,13.27
2023-03-02T20:59:28.455Z,13.30
2023-03-02T21:02:01.608Z,13.29
2023-03-02T21:04:48.964Z,13.32
2023-03-02T21:07:18.582Z,13.27
2023-03-02T21:09:46.939Z,13.07
2023-03-02T21:12:15.255Z,13.14
2023-03-02T21:14:43.505Z,13.11
2023-03-02T21:17:11.169Z,13.09
2023-03-02T21:19:39.090Z,13.18
2023-03-02T21:22:07.351Z,13.02
2023-03-02T21:24:34.796Z,13.01
2023-03-02T21:27:02.623Z,13.12
2023-03-02T21:29:30.442Z,12.99
2023-03-02T21:31:58.454Z,12.87
2023-03-02T21:34:26.368Z,12.92
2023-03-02T21:36:56.136Z,12.94
2023-03-02T21:39:26.314Z,13.05
2023-03-02T21:41:54.288Z,12.84
2023-03-02T21:44:21.760Z,12.80
2023-03-02T21:46:49.120Z,12.64
2023-03-02T21:49:17.730Z,12.93
2023-03-02T21:51:45.222Z,12.69
2023-03-02T21:54:12.765Z,12.61
2023-03-02T21:56:40.223Z,12.72
2023-03-02T21:59:07.429Z,12.66
2023-03-02T22:01:34.670Z,12.64
2023-03-02T22:04:02.310Z,12.50
2023-03-02T22:06:31.121Z,12.62
2023-03-02T22:08:58.704Z,12.58
2023-03-02T22:11:27.510Z,12.26
2023-03-02T22:13:55.709Z,12.31
2023-03-02T22:16:23.869Z,12.39
2023-03-02T22:18:55.153Z,12.34
2023-03-02T22:21:30.723Z,12.27
2023-03-02T22:24:11.088Z,11.98
2023-03-02T22:26:39.619Z,12.16
2023-03-02T22:29:36.470Z,11.95
2023-03-02T22:32:27.198Z,12.04
2023-03-02T22:34:58.739Z,12.02
2023-03-02T22:37:27.044Z,12.18
2023-03-02T22:39:55.150Z,11.98
2023-03-02T22:42:23.191Z,11.86
2023-03-02T22:45:02.069Z,12.02
2023-03-02T22:47:30.317Z,12.24
2023-03-02T22:50:39.287Z,12.20
2023-03-02T22:53:13.590Z,12.27
2023-03-02T22:55:42.286Z,12.03
2023-03-02T22:58:21.742Z,12.16
2023-03-02T23:00:49.101Z,11.68
2023-03-02T23:03:20.314Z,12.08
2023-03-02T23:05:51.052Z,12.03
2023-03-02T23:08:18.565Z,12.00
2023-03-02T23:10:46.666Z,11.90
2023-03-02T23:13:14.774Z,11.56
2023-03-02T23:15:42.503Z,11.69
2023-03-02T23:18:13.013Z,12.00
2023-03-02T23:20:40.177Z,11.97
2023-03-02T23:23:07.624Z,12.09
2023-03-02T23:25:34.765Z,12.10
2023-03-02T23:28:16.145Z,12.03
2023-03-02T23:30:43.868Z,12.22
2023-03-02T23:33:11.134Z,11.99
2023-03-02T23:35:38.351Z,12.04
2023-03-02T23:38:05.814Z,12.27
2023-03-02T23:40:32.984Z,12.28
2023-03-02T23:43:00.154Z,12.41
2023-03-02T23:45:27.615Z,12.34
2023-03-02T23:47:55.273Z,12.46
2023-03-02T23:50:22.575Z,12.36
2023-03-02T23:52:50.020Z,12.34
2023-03-02T23:55:17.886Z,12.41
2023-03-02T23:57:45.323Z,12.27
